createdAt,value
2023-03-23T16:03:02.574Z,99151.09
2023-03-23T16:08:25.043Z,99172.91
2023-03-23T16:13:47.283Z,99171.03
2023-03-23T16:19:13.555Z,99157.19
2023-03-23T16:24:35.775Z,99169.72
2023-03-23T16:30:04.202Z,99157.50
2023-03-23T16:35:26.822Z,99175.94
2023-03-23T16:40:49.102Z,99161.31
2023-03-23T16:46:13.191Z,99164.19
2023-03-23T16:51:36.322Z,99152.47
2023-03-23T16:56:58.295Z,99146.03
2023-03-23T17:02:19.994Z,99156.97
2023-03-23T17:07:42.969Z,99160.72
2023-03-23T17:13:05.065Z,99150.53
2023-03-23T17:18:26.896Z,99144.69
2023-03-23T17:23:52.343Z,99139.84
2023-03-23T17:29:14.158Z,99137.00
2023-03-23T17:34:36.817Z,99117.84
2023-03-23T17:39:58.848Z,99116.50
2023-03-23T17:45:20.941Z,99109.59
2023-03-23T17:50:42.980Z,99090.22
2023-03-23T17:56:06.362Z,99110.31
2023-03-23T18:01:28.043Z,99103.66
2023-03-23T18:06:50.048Z,99106.06
2023-03-23T18:12:12.318Z,99087.19
2023-03-23T18:17:35.576Z,99100.28
2023-03-23T18:22:57.931Z,99110.19
2023-03-23T18:28:21.981Z,99085.28
2023-03-23T18:33:47.300Z,99083.13
2023-03-23T18:39:11.300Z,99075.38
2023-03-23T18:44:33.404Z,99078.34
2023-03-23T18:49:56.634Z,99075.19
2023-03-23T18:55:20.707Z,99070.13
2023-03-23T19:00:43.688Z,99064.28
2023-03-23T19:06:09.382Z,99060.84
2023-03-23T19:11:31.164Z,99037.97
2023-03-23T19:16:53.524Z,99056.81
2023-03-23T19:22:15.510Z,99031.28
2023-03-23T19:28:01.392Z,99026.69
2023-03-23T19:33:19.737Z,99029.59
2023-03-23T19:38:41.907Z,99024.03
2023-03-23T19:44:04.785Z,99036.50
2023-03-23T19:49:26.951Z,99033.03
2023-03-23T19:54:49.176Z,99017.25
2023-03-23T20:00:13.657Z,99000.97
2023-03-23T20:05:36.890Z,99007.56
2023-03-23T20:11:06.723Z,99005.13
2023-03-23T20:16:29.135Z,98989.97
2023-03-23T20:21:52.304Z,98988.94
2023-03-23T20:27:18.036Z,98992.66
2023-03-23T20:32:42.949Z,98983.28
2023-03-23T20:38:05.623Z,98988.06
2023-03-23T20:43:30.395Z,98971.84
2023-03-23T20:48:52.388Z,98973.72
2023-03-23T20:54:16.375Z,98979.53
2023-03-23T20:59:38.237Z,98976.06
2023-03-23T21:05:04.703Z,98966.47
2023-03-23T21:10:28.344Z,98965.66
2023-03-23T21:15:52.032Z,98950.75
2023-03-23T21:21:15.341Z,98947.53
2023-03-23T21:26:37.769Z,98937.34
2023-03-23T21:37:25.405Z,98926.50
2023-03-23T21:42:52.127Z,98926.16
2023-03-23T21:48:13.975Z,98922.38
2023-03-23T21:53:37.389Z,98918.59
2023-03-23T21:59:01.721Z,98913.78
2023-03-23T22:04:24.008Z,98903.38
2023-03-23T22:09:46.339Z,98904.16
2023-03-23T22:15:10.734Z,98897.75
2023-03-23T22:20:33.108Z,98883.59
2023-03-23T22:25:56.343Z,98885.13
2023-03-23T22:31:24.032Z,98878.75
2023-03-23T22:36:46.143Z,98872.66
2023-03-23T22:42:08.566Z,98865.75
2023-03-23T22:47:31.065Z,98854.66
2023-03-23T22:52:53.365Z,98862.72
2023-03-23T22:58:16.405Z,98842.53
2023-03-23T23:03:38.583Z,98838.38
2023-03-23T23:14:46.331Z,98781.56
2023-03-23T23:20:13.391Z,98770.41
2023-03-23T23:25:37.230Z,98782.56
2023-03-23T23:31:00.247Z,98764.78
2023-03-23T23:36:23.226Z,98771.88
2023-03-23T23:42:01.029Z,98755.69
2023-03-23T23:47:23.496Z,98754.88
2023-03-23T23:52:50.784Z,98736.78
2023-03-23T23:58:12.929Z,98712.88
